Flag Hope — D5DW5 — position and weather

sailwx.info

Track history (hours):
 
Tides and Currents Weather Stations Pressure Air Temp Water Temp Dewpoint Dewpoint Depression Visibility Wind Speed Wind Dir Waves Ship Positions

Flag Hope

Last reported at 2017-Nov-20 00:26 UTC. Time now 2017-Nov-23 09:32 UTC.
Position N 49°51' W 004°38'.

Length 229 m; draft 9.5 m.

Type: Cargo ship. MMSI: 636015989.

Date/timePositionNaut miles runAvg speedWind from/ knotsBaromVisibWave heightAir tempDewpointWater temp
2017-Nov-20 00:26N 49°51' W 004°38'511.8
2017-Nov-20 00:00N 49°52' W 004°30'612.0
2017-Nov-19 23:28N 49°52' W 004°20'611.8
2017-Nov-19 22:58N 49°53' W 004°11'611.9
2017-Nov-19 22:27N 49°54' W 004°02'1311.2
2017-Nov-19 21:15N 49°56' W 003°41'310.8
2017-Nov-19 21:00N 49°56' W 003°37'510.6
2017-Nov-19 20:30N 49°57' W 003°29'510.2
2017-Nov-19 20:00N 49°57' W 003°21'510.0
2017-Nov-19 19:30N 49°58' W 003°13'610.0
2017-Nov-19 18:56N 49°59' W 003°05'410.1
2017-Nov-19 18:30N 49°60' W 002°58'510.3
2017-Nov-19 18:00N 50°01' W 002°50'510.7
2017-Nov-19 17:30N 50°02' W 002°42'511.2
2017-Nov-19 17:00N 50°04' W 002°34'1812.5
2017-Nov-19 15:32N 50°09' W 002°06'114.3
2017-Nov-19 15:26N 50°09' W 002°04'614.7
2017-Nov-19 15:00N 50°11' W 001°55'715.0
2017-Nov-19 14:30N 50°13' W 001°43'714.8
2017-Nov-19 14:00N 50°15' W 001°32'714.7
2017-Nov-19 13:30N 50°17' W 001°21'3512.3
2017-Nov-19 10:39N 50°26' W 000°28'210.2
2017-Nov-19 10:30N 50°27' W 000°26'510.0
2017-Nov-19 10:00N 50°28' W 000°18'5 9.7
2017-Nov-19 09:30N 50°30' W 000°11'5 9.5
2017-Nov-19 09:00N 50°31' W 000°04'5 9.5
2017-Nov-19 08:30N 50°32' E 000°03'5 9.7
2017-Nov-19 08:00N 50°33' E 000°11'510.3
2017-Nov-19 07:30N 50°35' E 000°19'611.0
2017-Nov-19 07:00N 50°36' E 000°27'611.7
2017-Nov-19 06:30N 50°38' E 000°35'612.7
2017-Nov-19 06:00N 50°42' E 000°44'613.0
2017-Nov-19 05:30N 50°46' E 000°52'713.1
2017-Nov-19 05:00N 50°49' E 001°01'613.0
2017-Nov-19 04:30N 50°53' E 001°09'612.5
2017-Nov-19 04:00N 50°58' E 001°16'611.9
2017-Nov-19 03:31N 51°02' E 001°23'611.1
2017-Nov-19 03:01N 51°05' E 001°30'510.2
2017-Nov-19 02:31N 51°08' E 001°36'5 9.6
2017-Nov-19 02:00N 51°12' E 001°42'5 9.4
2017-Nov-19 01:30N 51°15' E 001°47'5 9.6
2017-Nov-19 01:00N 51°20' E 001°50'5 9.9
2017-Nov-19 00:30N 51°24' E 001°53'5 9.9
2017-Nov-19 00:00N 51°29' E 001°57'510.8
2017-Nov-18 23:31N 51°33' E 002°03'611.6
2017-Nov-18 23:01N 51°37' E 002°09'611.8
2017-Nov-18 22:31N 51°41' E 002°16'612.4
2017-Nov-18 22:00N 51°46' E 002°23'4410.8
2017-Nov-18 17:57N 52°03' E 003°28'510.3
2017-Nov-18 17:30N 52°03' E 003°35'510.1
2017-Nov-18 17:00N 52°04' E 003°43'510.3
2017-Nov-18 16:30N 52°03' E 003°52'3 5.9
2017-Nov-18 16:00N 52°02' E 003°56'4 8.9
2017-Nov-18 15:30N 51°60' E 004°02'4 7.4
2017-Nov-18 14:58N 51°58' E 004°08'0 0.3
2017-Nov-18 14:28N 51°58' E 004°08'0 0.0
2017-Nov-18 13:58N 51°58' E 004°08'0 0.0
2017-Nov-18 13:28N 51°58' E 004°08'0 0.0
2017-Nov-18 12:58N 51°58' E 004°08'0 0.0
2017-Nov-18 12:28N 51°58' E 004°08'0 0.0
2017-Nov-18 11:58N 51°58' E 004°08'0 0.0
2017-Nov-18 11:28N 51°58' E 004°08'0 0.0
2017-Nov-18 10:58N 51°58' E 004°08'0 0.0
2017-Nov-18 10:28N 51°58' E 004°08'0 0.0
2017-Nov-18 09:58N 51°58' E 004°08'0 0.0
2017-Nov-18 09:25N 51°58' E 004°08'0 0.0
2017-Nov-18 08:58N 51°58' E 004°08'0 0.0
2017-Nov-18 08:28N 51°58' E 004°08'0 0.0
2017-Nov-18 07:58N 51°58' E 004°08'0 0.0
2017-Nov-18 07:28N 51°58' E 004°08'0 0.0
2017-Nov-18 06:58N 51°58' E 004°08'0 0.0
2017-Nov-18 06:28N 51°58' E 004°08'0 0.0
2017-Nov-18 05:58N 51°58' E 004°08'0 0.0
2017-Nov-18 05:28N 51°58' E 004°08'0 0.0
2017-Nov-18 04:58N 51°58' E 004°08'0 0.0
2017-Nov-18 04:28N 51°58' E 004°08'0 0.0
2017-Nov-18 03:58N 51°58' E 004°08'0 0.0
2017-Nov-18 03:28N 51°58' E 004°08'0 0.0
2017-Nov-18 02:58N 51°58' E 004°08'0 0.0
2017-Nov-18 02:28N 51°58' E 004°08'0 0.0
2017-Nov-18 01:58N 51°58' E 004°08'0 0.0
2017-Nov-18 01:28N 51°58' E 004°08'0 0.0
2017-Nov-18 00:58N 51°58' E 004°08'0 0.0
2017-Nov-18 00:28N 51°58' E 004°08'0 0.0
2017-Nov-17 23:58N 51°58' E 004°08'0 0.0
2017-Nov-17 23:28N 51°58' E 004°08'0 0.0
2017-Nov-17 22:58N 51°58' E 004°08'0 0.0
2017-Nov-17 22:28N 51°58' E 004°08'0 0.0
2017-Nov-17 21:58N 51°58' E 004°08'0 0.0
2017-Nov-17 21:28N 51°58' E 004°08'0 0.0
2017-Nov-17 20:58N 51°58' E 004°08'0 0.0
2017-Nov-17 20:28N 51°58' E 004°08'0 0.0
2017-Nov-17 19:58N 51°58' E 004°08'0 0.0
2017-Nov-17 19:28N 51°58' E 004°08'0 0.0
2017-Nov-17 18:58N 51°58' E 004°08'0 0.0
2017-Nov-17 18:28N 51°58' E 004°08'0 0.0
2017-Nov-17 17:58N 51°58' E 004°08'0 0.0
2017-Nov-17 17:28N 51°58' E 004°08'0 0.0
2017-Nov-17 16:58N 51°58' E 004°08'0 0.0
2017-Nov-17 16:28N 51°58' E 004°08'0 0.0
2017-Nov-17 15:58N 51°58' E 004°08'0 0.0
2017-Nov-17 15:28N 51°58' E 004°08'0 0.0
2017-Nov-17 14:58N 51°58' E 004°08'0 0.0
2017-Nov-17 14:28N 51°58' E 004°08'0 0.0
2017-Nov-17 13:58N 51°58' E 004°08'0 0.0
2017-Nov-17 13:28N 51°58' E 004°08'0 0.0
2017-Nov-17 12:58N 51°58' E 004°08'0 0.0
2017-Nov-17 12:28N 51°58' E 004°08'0 0.0
2017-Nov-17 11:58N 51°58' E 004°08'0 0.0
2017-Nov-17 11:28N 51°58' E 004°08'0 0.0
2017-Nov-17 10:58N 51°58' E 004°08'0 0.0
2017-Nov-17 10:28N 51°58' E 004°08'0 0.0
2017-Nov-17 09:58N 51°58' E 004°08'0 0.0
2017-Nov-17 09:28N 51°58' E 004°08'0 0.0
2017-Nov-17 08:58N 51°58' E 004°08'0 0.0
2017-Nov-17 08:28N 51°58' E 004°08'0 0.0
2017-Nov-17 07:58N 51°58' E 004°08'0 0.0
2017-Nov-17 07:28N 51°58' E 004°08'0 0.0
2017-Nov-17 06:58N 51°58' E 004°08'0 0.0
2017-Nov-17 06:28N 51°58' E 004°08'0 0.0
2017-Nov-17 05:58N 51°58' E 004°08'0 0.0
2017-Nov-17 05:28N 51°58' E 004°08'0 0.0
2017-Nov-17 04:58N 51°58' E 004°08'0 0.0
2017-Nov-17 04:28N 51°58' E 004°08'0 0.0
2017-Nov-17 03:58N 51°58' E 004°08'0 0.0
2017-Nov-17 03:28N 51°58' E 004°08'0 0.0
2017-Nov-17 02:58N 51°58' E 004°08'0 0.0
2017-Nov-17 02:28N 51°58' E 004°08'0 0.0
2017-Nov-17 01:58N 51°58' E 004°08'0 0.0
2017-Nov-17 01:28N 51°58' E 004°08'0 0.0
2017-Nov-17 00:58N 51°58' E 004°08'0 0.0
2017-Nov-17 00:28N 51°58' E 004°08'0 0.0
2017-Nov-16 23:58N 51°58' E 004°08'0 0.0
2017-Nov-16 23:28N 51°58' E 004°08'0 0.0
2017-Nov-16 22:58N 51°58' E 004°08'0 0.0
2017-Nov-16 22:28N 51°58' E 004°08'0 0.0
2017-Nov-16 21:58N 51°58' E 004°08'0 0.0
2017-Nov-16 21:28N 51°58' E 004°08'0 0.0
2017-Nov-16 20:58N 51°58' E 004°08'0 0.0
2017-Nov-16 20:28N 51°58' E 004°08'0 0.0
2017-Nov-16 19:58N 51°58' E 004°07'0 0.0
2017-Nov-16 19:28N 51°58' E 004°08'0 0.0
2017-Nov-16 18:58N 51°58' E 004°08'0 0.0
2017-Nov-16 18:28N 51°58' E 004°08'0 0.0
2017-Nov-16 17:58N 51°58' E 004°08'0 0.0
2017-Nov-16 17:28N 51°58' E 004°08'0 0.0
2017-Nov-16 16:58N 51°58' E 004°08'0 0.0
2017-Nov-16 16:28N 51°58' E 004°08'0 0.0
2017-Nov-16 15:58N 51°58' E 004°08'0 0.0
2017-Nov-16 15:28N 51°58' E 004°08'0 0.0
2017-Nov-16 14:58N 51°58' E 004°08'0 0.0
2017-Nov-16 14:28N 51°58' E 004°08'0 0.0
2017-Nov-16 13:58N 51°58' E 004°08'0 0.0
2017-Nov-16 13:28N 51°58' E 004°08'0 0.0
2017-Nov-16 12:58N 51°58' E 004°08'0 0.0
2017-Nov-16 12:28N 51°58' E 004°08'0 0.0
2017-Nov-16 11:58N 51°58' E 004°08'0 0.0
2017-Nov-16 11:28N 51°58' E 004°08'0 0.0
2017-Nov-16 10:58N 51°58' E 004°08'0 0.0
2017-Nov-16 10:28N 51°58' E 004°08'0 0.0
2017-Nov-16 09:58N 51°58' E 004°08'0 0.0
2017-Nov-16 09:28N 51°58' E 004°08'0 0.0
2017-Nov-16 08:58N 51°58' E 004°08'0 0.0
2017-Nov-16 08:28N 51°58' E 004°08'0 0.0
2017-Nov-16 07:58N 51°58' E 004°08'0 0.0
2017-Nov-16 07:28N 51°58' E 004°08'0 0.0
2017-Nov-16 06:58N 51°58' E 004°08'0 0.0
2017-Nov-16 06:28N 51°58' E 004°08'0 0.0
2017-Nov-16 05:58N 51°58' E 004°08'0 0.0
2017-Nov-16 05:28N 51°58' E 004°08'0 0.0
2017-Nov-16 04:58N 51°58' E 004°08'0 0.0
2017-Nov-16 04:28N 51°58' E 004°08'0 0.0
2017-Nov-16 03:58N 51°58' E 004°08'0 0.0
2017-Nov-16 03:28N 51°58' E 004°08'0 0.0
2017-Nov-16 02:58N 51°58' E 004°08'0 0.0
2017-Nov-16 02:28N 51°58' E 004°08'0 0.0
2017-Nov-16 01:58N 51°58' E 004°08'0 0.0
2017-Nov-16 01:28N 51°58' E 004°08'0 0.0
2017-Nov-16 00:58N 51°58' E 004°08'0 0.0
2017-Nov-16 00:28N 51°58' E 004°08'0 0.0
2017-Nov-15 23:58N 51°58' E 004°08'0 0.0
2017-Nov-15 23:28N 51°58' E 004°08'0 0.0
2017-Nov-15 22:58N 51°58' E 004°08'0 0.0
2017-Nov-15 22:28N 51°58' E 004°08'0 0.0
2017-Nov-15 21:55N 51°58' E 004°08'0 0.0
2017-Nov-15 21:28N 51°58' E 004°08'0 0.0
2017-Nov-15 20:58N 51°58' E 004°08'0 0.0
2017-Nov-15 20:28N 51°58' E 004°08'0 0.0
2017-Nov-15 19:58N 51°58' E 004°08'0 0.0
2017-Nov-15 19:28N 51°58' E 004°08'0 0.0
2017-Nov-15 18:58N 51°58' E 004°08'0 0.0
2017-Nov-15 18:28N 51°58' E 004°08'0 0.0
2017-Nov-15 17:58N 51°58' E 004°08'0 0.0
2017-Nov-15 17:28N 51°58' E 004°08'0 0.0
2017-Nov-15 16:58N 51°58' E 004°08'0 0.0
2017-Nov-15 16:28N 51°58' E 004°08'0 0.0
2017-Nov-15 15:58N 51°58' E 004°08'0 0.0
2017-Nov-15 15:28N 51°58' E 004°08'0 0.0
2017-Nov-15 14:58N 51°58' E 004°08'0 0.0
2017-Nov-15 14:28N 51°58' E 004°08'0 0.0
2017-Nov-15 13:58N 51°58' E 004°08'0 0.0
2017-Nov-15 13:28N 51°58' E 004°08'0 0.0
2017-Nov-15 12:58N 51°58' E 004°08'0 0.0
2017-Nov-15 12:28N 51°58' E 004°08'0 0.0
2017-Nov-15 11:58N 51°58' E 004°08'0 0.0
2017-Nov-15 11:28N 51°58' E 004°08'0 0.0
2017-Nov-15 10:58N 51°58' E 004°08'0 0.0
2017-Nov-15 10:31N 51°58' E 004°08'0 0.0
2017-Nov-15 10:01N 51°58' E 004°08'0 0.0
2017-Nov-15 09:28N 51°58' E 004°08'0 0.0
2017-Nov-15 09:01N 51°58' E 004°08'0 0.0
2017-Nov-15 08:31N 51°58' E 004°08'0 0.0
2017-Nov-15 07:58N 51°58' E 004°08'0 0.0
2017-Nov-15 07:31N 51°58' E 004°08'0 0.0
2017-Nov-15 06:58N 51°58' E 004°08'0 0.0
2017-Nov-15 06:28N 51°58' E 004°08'0 0.0
2017-Nov-15 05:58N 51°58' E 004°08'0 0.0
2017-Nov-15 05:27N 51°58' E 004°08'0 0.0
2017-Nov-15 04:58N 51°58' E 004°08'0 0.0
2017-Nov-15 04:28N 51°58' E 004°08'0 0.0
2017-Nov-15 04:00N 51°58' E 004°08'0 0.0
2017-Nov-15 03:30N 51°58' E 004°08'0 0.0
2017-Nov-15 03:00N 51°58' E 004°08'0 0.0
2017-Nov-15 02:31N 51°58' E 004°08'0 0.0
2017-Nov-15 02:01N 51°58' E 004°08'0 0.0
2017-Nov-15 01:30N 51°58' E 004°08'0 0.0
2017-Nov-15 01:00N 51°58' E 004°08'0 0.0
2017-Nov-15 00:31N 51°58' E 004°08'0 0.0
2017-Nov-15 00:01N 51°58' E 004°08'0 0.0
2017-Nov-14 23:30N 51°58' E 004°08'0 0.0
2017-Nov-14 23:00N 51°58' E 004°08'0 0.0
2017-Nov-14 22:31N 51°58' E 004°08'0 0.0
2017-Nov-14 22:00N 51°58' E 004°08'0 0.0
2017-Nov-14 21:30N 51°58' E 004°08'0 0.0
2017-Nov-14 21:00N 51°58' E 004°08'0 0.0
2017-Nov-14 20:31N 51°58' E 004°08'0 0.0
2017-Nov-14 20:00N 51°58' E 004°08'0 0.0
2017-Nov-14 19:30N 51°58' E 004°08'0 0.0
2017-Nov-14 18:58N 51°58' E 004°08'0 0.0
2017-Nov-14 18:30N 51°58' E 004°08'0 0.0
2017-Nov-14 18:00N 51°58' E 004°08'0 0.0
2017-Nov-14 17:30N 51°58' E 004°08'0 0.0
2017-Nov-14 16:58N 51°58' E 004°08'0 0.0
2017-Nov-14 16:30N 51°58' E 004°08'0 0.0
2017-Nov-14 16:01N 51°58' E 004°08'0 0.0
2017-Nov-14 15:30N 51°58' E 004°08'0 0.0
2017-Nov-14 15:00N 51°58' E 004°08'0 0.0
2017-Nov-14 14:31N 51°58' E 004°08'0 0.0
2017-Nov-14 14:00N 51°58' E 004°08'0 0.0
2017-Nov-14 13:28N 51°58' E 004°08'0 0.0
2017-Nov-14 13:00N 51°58' E 004°08'0 0.0
2017-Nov-14 12:31N 51°58' E 004°08'0 0.0
2017-Nov-14 12:00N 51°58' E 004°08'0 0.0
2017-Nov-14 11:30N 51°58' E 004°08'0 0.0
2017-Nov-14 11:00N 51°58' E 004°08'0 0.0
2017-Nov-14 10:30N 51°58' E 004°08'0 0.0
2017-Nov-14 10:00N 51°58' E 004°08'0 0.0
2017-Nov-14 09:30N 51°58' E 004°08'0 0.0
2017-Nov-14 09:00N 51°58' E 004°08'0 0.0
2017-Nov-14 08:30N 51°58' E 004°08'0 0.0
2017-Nov-14 08:00N 51°58' E 004°08'0 0.0
2017-Nov-14 07:31N 51°58' E 004°08'0 0.0
2017-Nov-14 07:00N 51°58' E 004°08'0 0.0
2017-Nov-14 06:30N 51°58' E 004°08'0 0.0
2017-Nov-14 06:00N 51°58' E 004°08'0 0.0
2017-Nov-14 05:30N 51°58' E 004°08'0 0.0
2017-Nov-14 05:00N 51°58' E 004°08'0 0.0
2017-Nov-14 04:30N 51°58' E 004°08'0 0.0
2017-Nov-14 04:00N 51°58' E 004°08'0 0.0
2017-Nov-14 03:30N 51°58' E 004°08'0 0.0
2017-Nov-14 03:00N 51°58' E 004°08'0 0.0
2017-Nov-14 02:30N 51°58' E 004°08'0 0.0
2017-Nov-14 02:00N 51°58' E 004°08'0 0.0
2017-Nov-14 01:30N 51°58' E 004°08'0 0.0
2017-Nov-14 01:00N 51°58' E 004°08'0 0.0
2017-Nov-14 00:30N 51°58' E 004°08'0 0.0
2017-Nov-14 00:00N 51°58' E 004°08'0 0.0
2017-Nov-13 23:30N 51°58' E 004°08'0 0.0
2017-Nov-13 23:00N 51°58' E 004°08'0 0.0
2017-Nov-13 22:30N 51°58' E 004°08'0 0.0
2017-Nov-13 22:00N 51°58' E 004°08'0 0.0
2017-Nov-13 02:00N 51°58' E 004°08'0 0.0
2017-Nov-13 01:30N 51°58' E 004°08'0 0.0
2017-Nov-13 01:00N 51°58' E 004°08'0 0.0
2017-Nov-13 00:30N 51°58' E 004°08'0 0.0
2017-Nov-13 00:00N 51°58' E 004°08'0 0.0
2017-Nov-12 23:30N 51°58' E 004°08'0 0.0
2017-Nov-12 23:00N 51°58' E 004°08'0 0.0
2017-Nov-12 22:30N 51°58' E 004°08'0 0.0
2017-Nov-12 22:00N 51°58' E 004°08'0 0.0
2017-Nov-12 21:30N 51°58' E 004°08'0 0.0
2017-Nov-12 21:00N 51°58' E 004°08'0 0.0
2017-Nov-12 20:30N 51°58' E 004°08'0 0.0
2017-Nov-12 20:00N 51°58' E 004°08'0 0.0
2017-Nov-12 19:30N 51°58' E 004°08'0 0.0
2017-Nov-12 19:00N 51°58' E 004°08'0 0.0
2017-Nov-12 18:30N 51°58' E 004°08'0 0.0
2017-Nov-12 18:00N 51°58' E 004°08'0 0.0
2017-Nov-12 17:30N 51°58' E 004°08'0 0.0
2017-Nov-12 17:00N 51°58' E 004°08'0 0.0
2017-Nov-12 16:30N 51°58' E 004°08'0 0.0
2017-Nov-12 16:00N 51°58' E 004°08'0 0.0
2017-Nov-12 15:30N 51°58' E 004°08'0 0.0
2017-Nov-12 15:00N 51°58' E 004°08'0 0.0
2017-Nov-12 14:30N 51°58' E 004°08'0 0.0
2017-Nov-12 14:00N 51°58' E 004°08'0 0.0
2017-Nov-12 13:30N 51°58' E 004°08'0 0.0
2017-Nov-12 13:00N 51°58' E 004°08'0 0.0
2017-Nov-12 12:30N 51°58' E 004°08'0 0.0
2017-Nov-12 12:00N 51°58' E 004°08'0 0.0
2017-Nov-12 11:30N 51°58' E 004°08'0 0.0
2017-Nov-12 11:00N 51°58' E 004°08'0 0.0
2017-Nov-12 10:30N 51°58' E 004°08'0 0.0
2017-Nov-12 10:00N 51°58' E 004°08'0 0.0
2017-Nov-12 09:30N 51°58' E 004°08'0 0.0
2017-Nov-12 09:00N 51°58' E 004°08'0 0.0
2017-Nov-12 08:30N 51°58' E 004°08'0 0.0
2017-Nov-12 08:00N 51°58' E 004°08'0 0.0
2017-Nov-12 07:30N 51°58' E 004°08'0 0.0
2017-Nov-12 07:00N 51°58' E 004°08'0 0.0
2017-Nov-12 06:30N 51°58' E 004°08'0 0.0
2017-Nov-12 06:00N 51°58' E 004°08'0 0.0
2017-Nov-12 05:30N 51°58' E 004°08'0 0.0
2017-Nov-12 05:00N 51°58' E 004°08'0 0.0
2017-Nov-12 04:30N 51°58' E 004°08'0 0.0
2017-Nov-12 04:00N 51°58' E 004°08'0 0.0
2017-Nov-12 03:30N 51°58' E 004°08'0 0.0
2017-Nov-12 03:00N 51°58' E 004°08'0 0.0
2017-Nov-12 02:30N 51°58' E 004°08'0 0.0
2017-Nov-12 02:00N 51°58' E 004°08'0 0.0
2017-Nov-12 01:30N 51°58' E 004°08'0 0.0
2017-Nov-12 01:00N 51°58' E 004°08'0 0.0
2017-Nov-12 00:30N 51°58' E 004°08'0 0.0
2017-Nov-12 00:00N 51°58' E 004°08'0 0.0
2017-Nov-11 23:30N 51°58' E 004°08'0 0.0
2017-Nov-11 23:00N 51°58' E 004°08'0 0.0
2017-Nov-11 22:30N 51°58' E 004°08'0 0.0
2017-Nov-11 22:00N 51°58' E 004°08'0 0.0
2017-Nov-11 21:30N 51°58' E 004°08'0 0.0
2017-Nov-11 21:00N 51°58' E 004°08'0 0.0
2017-Nov-11 20:30N 51°58' E 004°08'0 0.0
2017-Nov-11 20:00N 51°58' E 004°08'0 0.0
2017-Nov-11 19:30N 51°58' E 004°08'0 0.0
2017-Nov-11 19:00N 51°58' E 004°08'0 0.0
2017-Nov-11 18:30N 51°58' E 004°08'0 0.0
2017-Nov-11 18:00N 51°58' E 004°08'0 0.0
2017-Nov-11 17:30N 51°58' E 004°08'0 0.0
2017-Nov-11 17:00N 51°58' E 004°08'0 0.0
2017-Nov-11 16:30N 51°58' E 004°08'0 0.0
2017-Nov-11 16:00N 51°58' E 004°08'0 0.0
2017-Nov-11 15:30N 51°58' E 004°08'0 0.0
2017-Nov-11 15:00N 51°58' E 004°08'0 0.0
2017-Nov-11 14:30N 51°58' E 004°08'0 0.0
2017-Nov-11 14:00N 51°58' E 004°08'0 0.0
2017-Nov-11 13:30N 51°58' E 004°08'0 0.0
2017-Nov-11 13:00N 51°58' E 004°08'0 0.0
2017-Nov-11 12:30N 51°58' E 004°08'0 0.0
2017-Nov-11 12:00N 51°58' E 004°08'0 0.0
2017-Nov-11 11:30N 51°58' E 004°08'0 0.0
2017-Nov-11 11:00N 51°58' E 004°08'0 0.0
2017-Nov-11 10:30N 51°58' E 004°08'0 0.0
2017-Nov-11 10:00N 51°58' E 004°08'0 0.0
2017-Nov-11 09:30N 51°58' E 004°08'0 0.0
2017-Nov-11 09:00N 51°58' E 004°08'0 0.0
2017-Nov-11 08:30N 51°58' E 004°08'0 0.0
2017-Nov-11 08:00N 51°58' E 004°08'0 0.0
2017-Nov-11 07:30N 51°58' E 004°08'0 0.0
2017-Nov-11 07:00N 51°58' E 004°08'0 0.0
2017-Nov-11 06:30N 51°58' E 004°08'0 0.0
2017-Nov-11 06:00N 51°58' E 004°08'0 0.0
2017-Nov-11 05:30N 51°58' E 004°08'0 0.0
2017-Nov-11 05:00N 51°58' E 004°08'0 0.0
2017-Nov-11 04:30N 51°58' E 004°08'0 0.0
2017-Nov-11 04:00N 51°58' E 004°08'0 0.0
2017-Nov-11 03:30N 51°58' E 004°08'0 0.0
2017-Nov-11 03:00N 51°58' E 004°08'0 0.0
2017-Nov-11 02:30N 51°58' E 004°08'0 0.0
2017-Nov-11 02:00N 51°58' E 004°08'0 0.0
2017-Nov-11 01:30N 51°58' E 004°08'0 0.0
2017-Nov-11 01:00N 51°58' E 004°08'0 0.0
2017-Nov-11 00:30N 51°58' E 004°08'0 0.0
2017-Nov-11 00:00N 51°58' E 004°08'0 0.0
2017-Nov-10 23:30N 51°58' E 004°08'0 0.0
2017-Nov-10 23:00N 51°58' E 004°08'0 0.0
2017-Nov-10 22:30N 51°58' E 004°08'0 0.0
2017-Nov-10 22:00N 51°58' E 004°08'0 0.0
2017-Nov-10 21:30N 51°58' E 004°08'0 0.0
2017-Nov-10 21:00N 51°58' E 004°08'0 0.0
2017-Nov-10 20:30N 51°58' E 004°08'0 0.0
2017-Nov-10 20:00N 51°58' E 004°08'0 0.0
2017-Nov-10 19:30N 51°58' E 004°08'0 0.0
2017-Nov-10 19:00N 51°58' E 004°08'0 0.0
2017-Nov-10 18:30N 51°58' E 004°08'0 0.0
2017-Nov-10 18:00N 51°58' E 004°08'0 0.0
2017-Nov-10 17:27N 51°58' E 004°08'0 0.0
2017-Nov-10 17:00N 51°58' E 004°08'0 0.0
2017-Nov-10 16:30N 51°58' E 004°08'0 0.0
2017-Nov-10 16:00N 51°58' E 004°08'0 0.0
2017-Nov-10 15:30N 51°58' E 004°08'0 0.0
2017-Nov-10 15:00N 51°58' E 004°08'0 0.0
2017-Nov-10 14:30N 51°58' E 004°08'0 0.0
2017-Nov-10 14:00N 51°58' E 004°08'0 0.0
2017-Nov-10 13:30N 51°58' E 004°08'0 0.0
2017-Nov-10 13:00N 51°58' E 004°08'0 0.0
2017-Nov-10 12:30N 51°58' E 004°08'0 0.0
2017-Nov-10 12:00N 51°58' E 004°08'0 0.0
2017-Nov-10 11:30N 51°58' E 004°08'0 0.0
2017-Nov-10 11:00N 51°58' E 004°08'0 0.0
2017-Nov-10 10:30N 51°58' E 004°08'0 0.0
2017-Nov-10 10:00N 51°58' E 004°08'0 0.0
2017-Nov-10 09:30N 51°58' E 004°08'0 0.0
2017-Nov-10 09:00N 51°58' E 004°08'0 0.0
2017-Nov-10 08:30N 51°58' E 004°08'0 0.0
2017-Nov-10 08:00N 51°58' E 004°08'0 0.0
2017-Nov-10 07:30N 51°58' E 004°08'0 0.0
2017-Nov-10 07:00N 51°58' E 004°08'0 0.0
2017-Nov-10 06:30N 51°58' E 004°08'0 0.0
2017-Nov-10 06:00N 51°58' E 004°08'0 0.0
2017-Nov-10 05:30N 51°58' E 004°08'0 0.0
2017-Nov-10 05:00N 51°58' E 004°08'0 0.0
2017-Nov-10 04:30N 51°58' E 004°08'0 0.0
2017-Nov-10 04:00N 51°58' E 004°08'0 0.0
2017-Nov-10 03:30N 51°58' E 004°08'0 0.0
2017-Nov-10 03:00N 51°58' E 004°08'0 0.0
2017-Nov-10 02:30N 51°58' E 004°08'0 0.0
2017-Nov-10 02:00N 51°58' E 004°08'0 0.0
2017-Nov-10 01:30N 51°58' E 004°08'0 0.0
2017-Nov-10 01:00N 51°58' E 004°08'0 0.0
2017-Nov-10 00:30N 51°58' E 004°08'  
Track history (hours):
 
Tides and Currents Weather Stations Pressure Air Temp Water Temp Dewpoint Dewpoint Depression Visibility Wind Speed Wind Dir Waves Ship Positions

Flag Hope

Last reported at 2017-Nov-20 00:26 UTC. Time now 2017-Nov-23 09:32 UTC.
Position N 49°51' W 004°38'.

Length 229 m; draft 9.5 m.

Type: Cargo ship. MMSI: 636015989.

Date/timePositionNaut miles runAvg speedWind from/ knotsBaromVisibWave heightAir tempDewpointWater temp
2017-Nov-20 00:26N 49°51' W 004°38'511.8
2017-Nov-20 00:00N 49°52' W 004°30'612.0
2017-Nov-19 23:28N 49°52' W 004°20'611.8
2017-Nov-19 22:58N 49°53' W 004°11'611.9
2017-Nov-19 22:27N 49°54' W 004°02'1311.2
2017-Nov-19 21:15N 49°56' W 003°41'310.8
2017-Nov-19 21:00N 49°56' W 003°37'510.6
2017-Nov-19 20:30N 49°57' W 003°29'510.2
2017-Nov-19 20:00N 49°57' W 003°21'510.0
2017-Nov-19 19:30N 49°58' W 003°13'610.0
2017-Nov-19 18:56N 49°59' W 003°05'410.1
2017-Nov-19 18:30N 49°60' W 002°58'510.3
2017-Nov-19 18:00N 50°01' W 002°50'510.7
2017-Nov-19 17:30N 50°02' W 002°42'511.2
2017-Nov-19 17:00N 50°04' W 002°34'1812.5
2017-Nov-19 15:32N 50°09' W 002°06'114.3
2017-Nov-19 15:26N 50°09' W 002°04'614.7
2017-Nov-19 15:00N 50°11' W 001°55'715.0
2017-Nov-19 14:30N 50°13' W 001°43'714.8
2017-Nov-19 14:00N 50°15' W 001°32'714.7
2017-Nov-19 13:30N 50°17' W 001°21'3512.3
2017-Nov-19 10:39N 50°26' W 000°28'210.2
2017-Nov-19 10:30N 50°27' W 000°26'510.0
2017-Nov-19 10:00N 50°28' W 000°18'5 9.7
2017-Nov-19 09:30N 50°30' W 000°11'5 9.5
2017-Nov-19 09:00N 50°31' W 000°04'5 9.5
2017-Nov-19 08:30N 50°32' E 000°03'5 9.7
2017-Nov-19 08:00N 50°33' E 000°11'510.3
2017-Nov-19 07:30N 50°35' E 000°19'611.0
2017-Nov-19 07:00N 50°36' E 000°27'611.7
2017-Nov-19 06:30N 50°38' E 000°35'612.7
2017-Nov-19 06:00N 50°42' E 000°44'613.0
2017-Nov-19 05:30N 50°46' E 000°52'713.1
2017-Nov-19 05:00N 50°49' E 001°01'613.0
2017-Nov-19 04:30N 50°53' E 001°09'612.5
2017-Nov-19 04:00N 50°58' E 001°16'611.9
2017-Nov-19 03:31N 51°02' E 001°23'611.1
2017-Nov-19 03:01N 51°05' E 001°30'510.2
2017-Nov-19 02:31N 51°08' E 001°36'5 9.6
2017-Nov-19 02:00N 51°12' E 001°42'5 9.4
2017-Nov-19 01:30N 51°15' E 001°47'5 9.6
2017-Nov-19 01:00N 51°20' E 001°50'5 9.9
2017-Nov-19 00:30N 51°24' E 001°53'5 9.9
2017-Nov-19 00:00N 51°29' E 001°57'510.8
2017-Nov-18 23:31N 51°33' E 002°03'611.6
2017-Nov-18 23:01N 51°37' E 002°09'611.8
2017-Nov-18 22:31N 51°41' E 002°16'612.4
2017-Nov-18 22:00N 51°46' E 002°23'4410.8
2017-Nov-18 17:57N 52°03' E 003°28'510.3
2017-Nov-18 17:30N 52°03' E 003°35'510.1
2017-Nov-18 17:00N 52°04' E 003°43'510.3
2017-Nov-18 16:30N 52°03' E 003°52'3 5.9
2017-Nov-18 16:00N 52°02' E 003°56'4 8.9
2017-Nov-18 15:30N 51°60' E 004°02'4 7.4
2017-Nov-18 14:58N 51°58' E 004°08'0 0.3
2017-Nov-18 14:28N 51°58' E 004°08'0 0.0
2017-Nov-18 13:58N 51°58' E 004°08'0 0.0
2017-Nov-18 13:28N 51°58' E 004°08'0 0.0
2017-Nov-18 12:58N 51°58' E 004°08'0 0.0
2017-Nov-18 12:28N 51°58' E 004°08'0 0.0
2017-Nov-18 11:58N 51°58' E 004°08'0 0.0
2017-Nov-18 11:28N 51°58' E 004°08'0 0.0
2017-Nov-18 10:58N 51°58' E 004°08'0 0.0
2017-Nov-18 10:28N 51°58' E 004°08'0 0.0
2017-Nov-18 09:58N 51°58' E 004°08'0 0.0
2017-Nov-18 09:25N 51°58' E 004°08'0 0.0
2017-Nov-18 08:58N 51°58' E 004°08'0 0.0
2017-Nov-18 08:28N 51°58' E 004°08'0 0.0
2017-Nov-18 07:58N 51°58' E 004°08'0 0.0
2017-Nov-18 07:28N 51°58' E 004°08'0 0.0
2017-Nov-18 06:58N 51°58' E 004°08'0 0.0
2017-Nov-18 06:28N 51°58' E 004°08'0 0.0
2017-Nov-18 05:58N 51°58' E 004°08'0 0.0
2017-Nov-18 05:28N 51°58' E 004°08'0 0.0
2017-Nov-18 04:58N 51°58' E 004°08'0 0.0
2017-Nov-18 04:28N 51°58' E 004°08'0 0.0
2017-Nov-18 03:58N 51°58' E 004°08'0 0.0
2017-Nov-18 03:28N 51°58' E 004°08'0 0.0
2017-Nov-18 02:58N 51°58' E 004°08'0 0.0
2017-Nov-18 02:28N 51°58' E 004°08'0 0.0
2017-Nov-18 01:58N 51°58' E 004°08'0 0.0
2017-Nov-18 01:28N 51°58' E 004°08'0 0.0
2017-Nov-18 00:58N 51°58' E 004°08'0 0.0
2017-Nov-18 00:28N 51°58' E 004°08'0 0.0
2017-Nov-17 23:58N 51°58' E 004°08'0 0.0
2017-Nov-17 23:28N 51°58' E 004°08'0 0.0
2017-Nov-17 22:58N 51°58' E 004°08'0 0.0
2017-Nov-17 22:28N 51°58' E 004°08'0 0.0
2017-Nov-17 21:58N 51°58' E 004°08'0 0.0
2017-Nov-17 21:28N 51°58' E 004°08'0 0.0
2017-Nov-17 20:58N 51°58' E 004°08'0 0.0
2017-Nov-17 20:28N 51°58' E 004°08'0 0.0
2017-Nov-17 19:58N 51°58' E 004°08'0 0.0
2017-Nov-17 19:28N 51°58' E 004°08'0 0.0
2017-Nov-17 18:58N 51°58' E 004°08'0 0.0
2017-Nov-17 18:28N 51°58' E 004°08'0 0.0
2017-Nov-17 17:58N 51°58' E 004°08'0 0.0
2017-Nov-17 17:28N 51°58' E 004°08'0 0.0
2017-Nov-17 16:58N 51°58' E 004°08'0 0.0
2017-Nov-17 16:28N 51°58' E 004°08'0 0.0
2017-Nov-17 15:58N 51°58' E 004°08'0 0.0
2017-Nov-17 15:28N 51°58' E 004°08'0 0.0
2017-Nov-17 14:58N 51°58' E 004°08'0 0.0
2017-Nov-17 14:28N 51°58' E 004°08'0 0.0
2017-Nov-17 13:58N 51°58' E 004°08'0 0.0
2017-Nov-17 13:28N 51°58' E 004°08'0 0.0
2017-Nov-17 12:58N 51°58' E 004°08'0 0.0
2017-Nov-17 12:28N 51°58' E 004°08'0 0.0
2017-Nov-17 11:58N 51°58' E 004°08'0 0.0
2017-Nov-17 11:28N 51°58' E 004°08'0 0.0
2017-Nov-17 10:58N 51°58' E 004°08'0 0.0
2017-Nov-17 10:28N 51°58' E 004°08'0 0.0
2017-Nov-17 09:58N 51°58' E 004°08'0 0.0
2017-Nov-17 09:28N 51°58' E 004°08'0 0.0
2017-Nov-17 08:58N 51°58' E 004°08'0 0.0
2017-Nov-17 08:28N 51°58' E 004°08'0 0.0
2017-Nov-17 07:58N 51°58' E 004°08'0 0.0
2017-Nov-17 07:28N 51°58' E 004°08'0 0.0
2017-Nov-17 06:58N 51°58' E 004°08'0 0.0
2017-Nov-17 06:28N 51°58' E 004°08'0 0.0
2017-Nov-17 05:58N 51°58' E 004°08'0 0.0
2017-Nov-17 05:28N 51°58' E 004°08'0 0.0
2017-Nov-17 04:58N 51°58' E 004°08'0 0.0
2017-Nov-17 04:28N 51°58' E 004°08'0 0.0
2017-Nov-17 03:58N 51°58' E 004°08'0 0.0
2017-Nov-17 03:28N 51°58' E 004°08'0 0.0
2017-Nov-17 02:58N 51°58' E 004°08'0 0.0
2017-Nov-17 02:28N 51°58' E 004°08'0 0.0
2017-Nov-17 01:58N 51°58' E 004°08'0 0.0
2017-Nov-17 01:28N 51°58' E 004°08'0 0.0
2017-Nov-17 00:58N 51°58' E 004°08'0 0.0
2017-Nov-17 00:28N 51°58' E 004°08'0 0.0
2017-Nov-16 23:58N 51°58' E 004°08'0 0.0
2017-Nov-16 23:28N 51°58' E 004°08'0 0.0
2017-Nov-16 22:58N 51°58' E 004°08'0 0.0
2017-Nov-16 22:28N 51°58' E 004°08'0 0.0
2017-Nov-16 21:58N 51°58' E 004°08'0 0.0
2017-Nov-16 21:28N 51°58' E 004°08'0 0.0
2017-Nov-16 20:58N 51°58' E 004°08'0 0.0
2017-Nov-16 20:28N 51°58' E 004°08'0 0.0
2017-Nov-16 19:58N 51°58' E 004°07'0 0.0
2017-Nov-16 19:28N 51°58' E 004°08'0 0.0
2017-Nov-16 18:58N 51°58' E 004°08'0 0.0
2017-Nov-16 18:28N 51°58' E 004°08'0 0.0
2017-Nov-16 17:58N 51°58' E 004°08'0 0.0
2017-Nov-16 17:28N 51°58' E 004°08'0 0.0
2017-Nov-16 16:58N 51°58' E 004°08'0 0.0
2017-Nov-16 16:28N 51°58' E 004°08'0 0.0
2017-Nov-16 15:58N 51°58' E 004°08'0 0.0
2017-Nov-16 15:28N 51°58' E 004°08'0 0.0
2017-Nov-16 14:58N 51°58' E 004°08'0 0.0
2017-Nov-16 14:28N 51°58' E 004°08'0 0.0
2017-Nov-16 13:58N 51°58' E 004°08'0 0.0
2017-Nov-16 13:28N 51°58' E 004°08'0 0.0
2017-Nov-16 12:58N 51°58' E 004°08'0 0.0
2017-Nov-16 12:28N 51°58' E 004°08'0 0.0
2017-Nov-16 11:58N 51°58' E 004°08'0 0.0
2017-Nov-16 11:28N 51°58' E 004°08'0 0.0
2017-Nov-16 10:58N 51°58' E 004°08'0 0.0
2017-Nov-16 10:28N 51°58' E 004°08'0 0.0
2017-Nov-16 09:58N 51°58' E 004°08'0 0.0
2017-Nov-16 09:28N 51°58' E 004°08'0 0.0
2017-Nov-16 08:58N 51°58' E 004°08'0 0.0
2017-Nov-16 08:28N 51°58' E 004°08'0 0.0
2017-Nov-16 07:58N 51°58' E 004°08'0 0.0
2017-Nov-16 07:28N 51°58' E 004°08'0 0.0
2017-Nov-16 06:58N 51°58' E 004°08'0 0.0
2017-Nov-16 06:28N 51°58' E 004°08'0 0.0
2017-Nov-16 05:58N 51°58' E 004°08'0 0.0
2017-Nov-16 05:28N 51°58' E 004°08'0 0.0
2017-Nov-16 04:58N 51°58' E 004°08'0 0.0
2017-Nov-16 04:28N 51°58' E 004°08'0 0.0
2017-Nov-16 03:58N 51°58' E 004°08'0 0.0
2017-Nov-16 03:28N 51°58' E 004°08'0 0.0
2017-Nov-16 02:58N 51°58' E 004°08'0 0.0
2017-Nov-16 02:28N 51°58' E 004°08'0 0.0
2017-Nov-16 01:58N 51°58' E 004°08'0 0.0
2017-Nov-16 01:28N 51°58' E 004°08'0 0.0
2017-Nov-16 00:58N 51°58' E 004°08'0 0.0
2017-Nov-16 00:28N 51°58' E 004°08'0 0.0
2017-Nov-15 23:58N 51°58' E 004°08'0 0.0
2017-Nov-15 23:28N 51°58' E 004°08'0 0.0
2017-Nov-15 22:58N 51°58' E 004°08'0 0.0
2017-Nov-15 22:28N 51°58' E 004°08'0 0.0
2017-Nov-15 21:55N 51°58' E 004°08'0 0.0
2017-Nov-15 21:28N 51°58' E 004°08'0 0.0
2017-Nov-15 20:58N 51°58' E 004°08'0 0.0
2017-Nov-15 20:28N 51°58' E 004°08'0 0.0
2017-Nov-15 19:58N 51°58' E 004°08'0 0.0
2017-Nov-15 19:28N 51°58' E 004°08'0 0.0
2017-Nov-15 18:58N 51°58' E 004°08'0 0.0
2017-Nov-15 18:28N 51°58' E 004°08'0 0.0
2017-Nov-15 17:58N 51°58' E 004°08'0 0.0
2017-Nov-15 17:28N 51°58' E 004°08'0 0.0
2017-Nov-15 16:58N 51°58' E 004°08'0 0.0
2017-Nov-15 16:28N 51°58' E 004°08'0 0.0
2017-Nov-15 15:58N 51°58' E 004°08'0 0.0
2017-Nov-15 15:28N 51°58' E 004°08'0 0.0
2017-Nov-15 14:58N 51°58' E 004°08'0 0.0
2017-Nov-15 14:28N 51°58' E 004°08'0 0.0
2017-Nov-15 13:58N 51°58' E 004°08'0 0.0
2017-Nov-15 13:28N 51°58' E 004°08'0 0.0
2017-Nov-15 12:58N 51°58' E 004°08'0 0.0
2017-Nov-15 12:28N 51°58' E 004°08'0 0.0
2017-Nov-15 11:58N 51°58' E 004°08'0 0.0
2017-Nov-15 11:28N 51°58' E 004°08'0 0.0
2017-Nov-15 10:58N 51°58' E 004°08'0 0.0
2017-Nov-15 10:31N 51°58' E 004°08'0 0.0
2017-Nov-15 10:01N 51°58' E 004°08'0 0.0
2017-Nov-15 09:28N 51°58' E 004°08'0 0.0
2017-Nov-15 09:01N 51°58' E 004°08'0 0.0
2017-Nov-15 08:31N 51°58' E 004°08'0 0.0
2017-Nov-15 07:58N 51°58' E 004°08'0 0.0
2017-Nov-15 07:31N 51°58' E 004°08'0 0.0
2017-Nov-15 06:58N 51°58' E 004°08'0 0.0
2017-Nov-15 06:28N 51°58' E 004°08'0 0.0
2017-Nov-15 05:58N 51°58' E 004°08'0 0.0
2017-Nov-15 05:27N 51°58' E 004°08'0 0.0
2017-Nov-15 04:58N 51°58' E 004°08'0 0.0
2017-Nov-15 04:28N 51°58' E 004°08'0 0.0
2017-Nov-15 04:00N 51°58' E 004°08'0 0.0
2017-Nov-15 03:30N 51°58' E 004°08'0 0.0
2017-Nov-15 03:00N 51°58' E 004°08'0 0.0
2017-Nov-15 02:31N 51°58' E 004°08'0 0.0
2017-Nov-15 02:01N 51°58' E 004°08'0 0.0
2017-Nov-15 01:30N 51°58' E 004°08'0 0.0
2017-Nov-15 01:00N 51°58' E 004°08'0 0.0
2017-Nov-15 00:31N 51°58' E 004°08'0 0.0
2017-Nov-15 00:01N 51°58' E 004°08'0 0.0
2017-Nov-14 23:30N 51°58' E 004°08'0 0.0
2017-Nov-14 23:00N 51°58' E 004°08'0 0.0
2017-Nov-14 22:31N 51°58' E 004°08'0 0.0
2017-Nov-14 22:00N 51°58' E 004°08'0 0.0
2017-Nov-14 21:30N 51°58' E 004°08'0 0.0
2017-Nov-14 21:00N 51°58' E 004°08'0 0.0
2017-Nov-14 20:31N 51°58' E 004°08'0 0.0
2017-Nov-14 20:00N 51°58' E 004°08'0 0.0
2017-Nov-14 19:30N 51°58' E 004°08'0 0.0
2017-Nov-14 18:58N 51°58' E 004°08'0 0.0
2017-Nov-14 18:30N 51°58' E 004°08'0 0.0
2017-Nov-14 18:00N 51°58' E 004°08'0 0.0
2017-Nov-14 17:30N 51°58' E 004°08'0 0.0
2017-Nov-14 16:58N 51°58' E 004°08'0 0.0
2017-Nov-14 16:30N 51°58' E 004°08'0 0.0
2017-Nov-14 16:01N 51°58' E 004°08'0 0.0
2017-Nov-14 15:30N 51°58' E 004°08'0 0.0
2017-Nov-14 15:00N 51°58' E 004°08'0 0.0
2017-Nov-14 14:31N 51°58' E 004°08'0 0.0
2017-Nov-14 14:00N 51°58' E 004°08'0 0.0
2017-Nov-14 13:28N 51°58' E 004°08'0 0.0
2017-Nov-14 13:00N 51°58' E 004°08'0 0.0
2017-Nov-14 12:31N 51°58' E 004°08'0 0.0
2017-Nov-14 12:00N 51°58' E 004°08'0 0.0
2017-Nov-14 11:30N 51°58' E 004°08'0 0.0
2017-Nov-14 11:00N 51°58' E 004°08'0 0.0
2017-Nov-14 10:30N 51°58' E 004°08'0 0.0
2017-Nov-14 10:00N 51°58' E 004°08'0 0.0
2017-Nov-14 09:30N 51°58' E 004°08'0 0.0
2017-Nov-14 09:00N 51°58' E 004°08'0 0.0
2017-Nov-14 08:30N 51°58' E 004°08'0 0.0
2017-Nov-14 08:00N 51°58' E 004°08'0 0.0
2017-Nov-14 07:31N 51°58' E 004°08'0 0.0
2017-Nov-14 07:00N 51°58' E 004°08'0 0.0
2017-Nov-14 06:30N 51°58' E 004°08'0 0.0
2017-Nov-14 06:00N 51°58' E 004°08'0 0.0
2017-Nov-14 05:30N 51°58' E 004°08'0 0.0
2017-Nov-14 05:00N 51°58' E 004°08'0 0.0
2017-Nov-14 04:30N 51°58' E 004°08'0 0.0
2017-Nov-14 04:00N 51°58' E 004°08'0 0.0
2017-Nov-14 03:30N 51°58' E 004°08'0 0.0
2017-Nov-14 03:00N 51°58' E 004°08'0 0.0
2017-Nov-14 02:30N 51°58' E 004°08'0 0.0
2017-Nov-14 02:00N 51°58' E 004°08'0 0.0
2017-Nov-14 01:30N 51°58' E 004°08'0 0.0
2017-Nov-14 01:00N 51°58' E 004°08'0 0.0
2017-Nov-14 00:30N 51°58' E 004°08'0 0.0
2017-Nov-14 00:00N 51°58' E 004°08'0 0.0
2017-Nov-13 23:30N 51°58' E 004°08'0 0.0
2017-Nov-13 23:00N 51°58' E 004°08'0 0.0
2017-Nov-13 22:30N 51°58' E 004°08'0 0.0
2017-Nov-13 22:00N 51°58' E 004°08'0 0.0
2017-Nov-13 02:00N 51°58' E 004°08'0 0.0
2017-Nov-13 01:30N 51°58' E 004°08'0 0.0
2017-Nov-13 01:00N 51°58' E 004°08'0 0.0
2017-Nov-13 00:30N 51°58' E 004°08'0 0.0
2017-Nov-13 00:00N 51°58' E 004°08'0 0.0
2017-Nov-12 23:30N 51°58' E 004°08'0 0.0
2017-Nov-12 23:00N 51°58' E 004°08'0 0.0
2017-Nov-12 22:30N 51°58' E 004°08'0 0.0
2017-Nov-12 22:00N 51°58' E 004°08'0 0.0
2017-Nov-12 21:30N 51°58' E 004°08'0 0.0
2017-Nov-12 21:00N 51°58' E 004°08'0 0.0
2017-Nov-12 20:30N 51°58' E 004°08'0 0.0
2017-Nov-12 20:00N 51°58' E 004°08'0 0.0
2017-Nov-12 19:30N 51°58' E 004°08'0 0.0
2017-Nov-12 19:00N 51°58' E 004°08'0 0.0
2017-Nov-12 18:30N 51°58' E 004°08'0 0.0
2017-Nov-12 18:00N 51°58' E 004°08'0 0.0
2017-Nov-12 17:30N 51°58' E 004°08'0 0.0
2017-Nov-12 17:00N 51°58' E 004°08'0 0.0
2017-Nov-12 16:30N 51°58' E 004°08'0 0.0
2017-Nov-12 16:00N 51°58' E 004°08'0 0.0
2017-Nov-12 15:30N 51°58' E 004°08'0 0.0
2017-Nov-12 15:00N 51°58' E 004°08'0 0.0
2017-Nov-12 14:30N 51°58' E 004°08'0 0.0
2017-Nov-12 14:00N 51°58' E 004°08'0 0.0
2017-Nov-12 13:30N 51°58' E 004°08'0 0.0
2017-Nov-12 13:00N 51°58' E 004°08'0 0.0
2017-Nov-12 12:30N 51°58' E 004°08'0 0.0
2017-Nov-12 12:00N 51°58' E 004°08'0 0.0
2017-Nov-12 11:30N 51°58' E 004°08'0 0.0
2017-Nov-12 11:00N 51°58' E 004°08'0 0.0
2017-Nov-12 10:30N 51°58' E 004°08'0 0.0
2017-Nov-12 10:00N 51°58' E 004°08'0 0.0
2017-Nov-12 09:30N 51°58' E 004°08'0 0.0
2017-Nov-12 09:00N 51°58' E 004°08'0 0.0
2017-Nov-12 08:30N 51°58' E 004°08'0 0.0
2017-Nov-12 08:00N 51°58' E 004°08'0 0.0
2017-Nov-12 07:30N 51°58' E 004°08'0 0.0
2017-Nov-12 07:00N 51°58' E 004°08'0 0.0
2017-Nov-12 06:30N 51°58' E 004°08'0 0.0
2017-Nov-12 06:00N 51°58' E 004°08'0 0.0
2017-Nov-12 05:30N 51°58' E 004°08'0 0.0
2017-Nov-12 05:00N 51°58' E 004°08'0 0.0
2017-Nov-12 04:30N 51°58' E 004°08'0 0.0
2017-Nov-12 04:00N 51°58' E 004°08'0 0.0
2017-Nov-12 03:30N 51°58' E 004°08'0 0.0
2017-Nov-12 03:00N 51°58' E 004°08'0 0.0
2017-Nov-12 02:30N 51°58' E 004°08'0 0.0
2017-Nov-12 02:00N 51°58' E 004°08'0 0.0
2017-Nov-12 01:30N 51°58' E 004°08'0 0.0
2017-Nov-12 01:00N 51°58' E 004°08'0 0.0
2017-Nov-12 00:30N 51°58' E 004°08'0 0.0
2017-Nov-12 00:00N 51°58' E 004°08'0 0.0
2017-Nov-11 23:30N 51°58' E 004°08'0 0.0
2017-Nov-11 23:00N 51°58' E 004°08'0 0.0
2017-Nov-11 22:30N 51°58' E 004°08'0 0.0
2017-Nov-11 22:00N 51°58' E 004°08'0 0.0
2017-Nov-11 21:30N 51°58' E 004°08'0 0.0
2017-Nov-11 21:00N 51°58' E 004°08'0 0.0
2017-Nov-11 20:30N 51°58' E 004°08'0 0.0
2017-Nov-11 20:00N 51°58' E 004°08'0 0.0
2017-Nov-11 19:30N 51°58' E 004°08'0 0.0
2017-Nov-11 19:00N 51°58' E 004°08'0 0.0
2017-Nov-11 18:30N 51°58' E 004°08'0 0.0
2017-Nov-11 18:00N 51°58' E 004°08'0 0.0
2017-Nov-11 17:30N 51°58' E 004°08'0 0.0
2017-Nov-11 17:00N 51°58' E 004°08'0 0.0
2017-Nov-11 16:30N 51°58' E 004°08'0 0.0
2017-Nov-11 16:00N 51°58' E 004°08'0 0.0
2017-Nov-11 15:30N 51°58' E 004°08'0 0.0
2017-Nov-11 15:00N 51°58' E 004°08'0 0.0
2017-Nov-11 14:30N 51°58' E 004°08'0 0.0
2017-Nov-11 14:00N 51°58' E 004°08'0 0.0
2017-Nov-11 13:30N 51°58' E 004°08'0 0.0
2017-Nov-11 13:00N 51°58' E 004°08'0 0.0
2017-Nov-11 12:30N 51°58' E 004°08'0 0.0
2017-Nov-11 12:00N 51°58' E 004°08'0 0.0
2017-Nov-11 11:30N 51°58' E 004°08'0 0.0
2017-Nov-11 11:00N 51°58' E 004°08'0 0.0
2017-Nov-11 10:30N 51°58' E 004°08'0 0.0
2017-Nov-11 10:00N 51°58' E 004°08'0 0.0
2017-Nov-11 09:30N 51°58' E 004°08'0 0.0
2017-Nov-11 09:00N 51°58' E 004°08'0 0.0
2017-Nov-11 08:30N 51°58' E 004°08'0 0.0
2017-Nov-11 08:00N 51°58' E 004°08'0 0.0
2017-Nov-11 07:30N 51°58' E 004°08'0 0.0
2017-Nov-11 07:00N 51°58' E 004°08'0 0.0
2017-Nov-11 06:30N 51°58' E 004°08'0 0.0
2017-Nov-11 06:00N 51°58' E 004°08'0 0.0
2017-Nov-11 05:30N 51°58' E 004°08'0 0.0
2017-Nov-11 05:00N 51°58' E 004°08'0 0.0
2017-Nov-11 04:30N 51°58' E 004°08'0 0.0
2017-Nov-11 04:00N 51°58' E 004°08'0 0.0
2017-Nov-11 03:30N 51°58' E 004°08'0 0.0
2017-Nov-11 03:00N 51°58' E 004°08'0 0.0
2017-Nov-11 02:30N 51°58' E 004°08'0 0.0
2017-Nov-11 02:00N 51°58' E 004°08'0 0.0
2017-Nov-11 01:30N 51°58' E 004°08'0 0.0
2017-Nov-11 01:00N 51°58' E 004°08'0 0.0
2017-Nov-11 00:30N 51°58' E 004°08'0 0.0
2017-Nov-11 00:00N 51°58' E 004°08'0 0.0
2017-Nov-10 23:30N 51°58' E 004°08'0 0.0
2017-Nov-10 23:00N 51°58' E 004°08'0 0.0
2017-Nov-10 22:30N 51°58' E 004°08'0 0.0
2017-Nov-10 22:00N 51°58' E 004°08'0 0.0
2017-Nov-10 21:30N 51°58' E 004°08'0 0.0
2017-Nov-10 21:00N 51°58' E 004°08'0 0.0
2017-Nov-10 20:30N 51°58' E 004°08'0 0.0
2017-Nov-10 20:00N 51°58' E 004°08'0 0.0
2017-Nov-10 19:30N 51°58' E 004°08'0 0.0
2017-Nov-10 19:00N 51°58' E 004°08'0 0.0
2017-Nov-10 18:30N 51°58' E 004°08'0 0.0
2017-Nov-10 18:00N 51°58' E 004°08'0 0.0
2017-Nov-10 17:27N 51°58' E 004°08'0 0.0
2017-Nov-10 17:00N 51°58' E 004°08'0 0.0
2017-Nov-10 16:30N 51°58' E 004°08'0 0.0
2017-Nov-10 16:00N 51°58' E 004°08'0 0.0
2017-Nov-10 15:30N 51°58' E 004°08'0 0.0
2017-Nov-10 15:00N 51°58' E 004°08'0 0.0
2017-Nov-10 14:30N 51°58' E 004°08'0 0.0
2017-Nov-10 14:00N 51°58' E 004°08'0 0.0
2017-Nov-10 13:30N 51°58' E 004°08'0 0.0
2017-Nov-10 13:00N 51°58' E 004°08'0 0.0
2017-Nov-10 12:30N 51°58' E 004°08'0 0.0
2017-Nov-10 12:00N 51°58' E 004°08'0 0.0
2017-Nov-10 11:30N 51°58' E 004°08'0 0.0
2017-Nov-10 11:00N 51°58' E 004°08'0 0.0
2017-Nov-10 10:30N 51°58' E 004°08'0 0.0
2017-Nov-10 10:00N 51°58' E 004°08'0 0.0
2017-Nov-10 09:30N 51°58' E 004°08'0 0.0
2017-Nov-10 09:00N 51°58' E 004°08'0 0.0
2017-Nov-10 08:30N 51°58' E 004°08'0 0.0
2017-Nov-10 08:00N 51°58' E 004°08'0 0.0
2017-Nov-10 07:30N 51°58' E 004°08'0 0.0
2017-Nov-10 07:00N 51°58' E 004°08'0 0.0
2017-Nov-10 06:30N 51°58' E 004°08'0 0.0
2017-Nov-10 06:00N 51°58' E 004°08'0 0.0
2017-Nov-10 05:30N 51°58' E 004°08'0 0.0
2017-Nov-10 05:00N 51°58' E 004°08'0 0.0
2017-Nov-10 04:30N 51°58' E 004°08'0 0.0
2017-Nov-10 04:00N 51°58' E 004°08'0 0.0
2017-Nov-10 03:30N 51°58' E 004°08'0 0.0
2017-Nov-10 03:00N 51°58' E 004°08'0 0.0
2017-Nov-10 02:30N 51°58' E 004°08'0 0.0
2017-Nov-10 02:00N 51°58' E 004°08'0 0.0
2017-Nov-10 01:30N 51°58' E 004°08'0 0.0
2017-Nov-10 01:00N 51°58' E 004°08'0 0.0
2017-Nov-10 00:30N 51°58' E 004°08'  

Dump ship's entire track history